Time;durP1;ratioP1;P1;durP2;ratioP2;P2;SDS_P1;SDS_P2;PMS_P1;PMS_P2;Temp;Humidity;BMP_temperature;BMP_pressure;BME280_temperature;BME280_humidity;BME280_pressure;Samples;Min_cycle;Max_cycle;Signal;HPM_P1;HPM_P2
2022/01/22 06:00:36;;;;;;;14.97;12.57;;;5.20;97.20;;;;;;1727326;28;20274;-76
2022/01/22 06:01:29;;;;;;;12.10;10.80;;;5.30;97.20;;;;;;1727463;28;20267;-76
2022/01/22 06:02:20;;;;;;;14.93;10.35;;;5.30;97.20;;;;;;1727396;28;20690;-76
2022/01/22 06:03:11;;;;;;;11.13;10.05;;;5.30;97.20;;;;;;1727301;28;20256;-76
2022/01/22 06:04:03;;;;;;;10.67;9.67;;;5.30;97.20;;;;;;1727338;28;20197;-75
2022/01/22 06:04:54;;;;;;;9.90;8.90;;;5.30;97.20;;;;;;1727300;28;20256;-76
2022/01/22 06:05:45;;;;;;;10.90;9.80;;;5.30;97.20;;;;;;1727346;28;20204;-76
2022/01/22 06:06:36;;;;;;;12.55;10.00;;;5.30;97.20;;;;;;1728718;28;20203;-76
2022/01/22 06:07:28;;;;;;;10.57;9.43;;;5.30;97.20;;;;;;1727440;28;20203;-76
2022/01/22 06:08:19;;;;;;;11.68;8.93;;;5.30;97.20;;;;;;1726980;28;20196;-76
2022/01/22 06:09:11;;;;;;;11.40;10.00;;;5.30;97.20;;;;;;1727322;28;20667;-75
2022/01/22 06:10:15;;;;;;;10.30;9.30;;;5.30;97.20;;;;;;1727364;28;20447;-76
2022/01/22 06:11:09;;;;;;;10.88;9.05;;;5.30;97.20;;;;;;1727696;28;20599;-76
2022/01/22 06:12:14;;;;;;;9.77;8.45;;;5.30;97.20;;;;;;1727342;28;20197;-76
2022/01/22 06:13:15;;;;;;;10.27;9.25;;;5.30;97.20;;;;;;1727416;28;20222;-76
2022/01/22 06:14:06;;;;;;;11.30;9.02;;;5.20;97.20;;;;;;1727432;28;20287;-75
2022/01/22 06:14:57;;;;;;;10.47;9.43;;;5.20;97.20;;;;;;1727514;28;20203;-76
2022/01/22 06:15:49;;;;;;;11.05;9.63;;;5.20;97.20;;;;;;1727297;28;20232;-76
2022/01/22 06:16:41;;;;;;;9.30;8.35;;;5.20;97.20;;;;;;1727345;28;20230;-76
2022/01/22 06:17:32;;;;;;;11.13;9.02;;;5.20;97.20;;;;;;1727361;28;20263;-76
2022/01/22 06:18:23;;;;;;;11.37;9.87;;;5.20;97.20;;;;;;1727045;28;20203;-76
2022/01/22 06:19:14;;;;;;;12.63;9.15;;;5.10;97.20;;;;;;1727270;28;20219;-76
2022/01/22 06:20:08;;;;;;;9.93;9.00;;;5.10;97.20;;;;;;1727354;28;20204;-76
2022/01/22 06:20:58;;;;;;;13.80;9.90;;;5.10;97.20;;;;;;1727117;28;20555;-76
2022/01/22 06:21:51;;;;;;;11.00;9.70;;;5.10;97.20;;;;;;1734210;28;20246;-76
2022/01/22 06:22:42;;;;;;;11.70;8.95;;;5.10;97.20;;;;;;1734106;28;20211;-76
2022/01/22 06:23:34;;;;;;;9.70;8.60;;;5.10;97.20;;;;;;1734171;28;20725;-76
2022/01/22 06:24:25;;;;;;;10.13;8.77;;;5.00;97.20;;;;;;1734166;28;20203;-76
2022/01/22 06:25:16;;;;;;;9.53;8.73;;;5.00;97.20;;;;;;1734080;28;20231;-75
2022/01/22 06:26:08;;;;;;;10.15;8.55;;;5.00;97.20;;;;;;1734511;28;20228;-76
2022/01/22 06:27:00;;;;;;;14.45;9.55;;;5.00;97.20;;;;;;1735563;28;20196;-75
2022/01/22 06:27:51;;;;;;;10.13;8.80;;;5.00;97.20;;;;;;1735195;28;20200;-76
2022/01/22 06:28:43;;;;;;;11.10;9.77;;;5.00;97.20;;;;;;1735410;28;20210;-75
2022/01/22 06:29:33;;;;;;;9.90;8.90;;;5.00;97.20;;;;;;1735553;28;20208;-76
2022/01/22 06:30:26;;;;;;;13.00;9.60;;;5.00;97.20;;;;;;1735419;28;20205;-76
2022/01/22 06:31:18;;;;;;;12.23;9.30;;;5.00;97.20;;;;;;1732854;28;20240;-75
2022/01/22 06:32:10;;;;;;;9.63;8.77;;;5.00;97.20;;;;;;1728766;28;20204;-76
2022/01/22 06:33:01;;;;;;;11.23;10.07;;;5.00;97.20;;;;;;1728682;28;20239;-75
2022/01/22 06:33:52;;;;;;;9.90;8.90;;;5.00;97.20;;;;;;1728638;28;20208;-76
2022/01/22 06:34:43;;;;;;;9.93;8.93;;;5.00;97.20;;;;;;1728724;28;20526;-76
2022/01/22 06:35:35;;;;;;;10.43;9.33;;;5.00;97.20;;;;;;1728681;28;20204;-75
2022/01/22 06:36:26;;;;;;;10.70;9.70;;;5.00;97.20;;;;;;1728632;28;20208;-76
2022/01/22 06:37:18;;;;;;;11.88;10.20;;;5.00;97.20;;;;;;1728713;28;20235;-76
2022/01/22 06:38:09;;;;;;;10.50;9.45;;;5.00;97.20;;;;;;1728366;28;20204;-76
2022/01/22 06:39:11;;;;;;;10.80;9.75;;;5.00;97.20;;;;;;1728570;28;20668;-76
2022/01/22 06:42:18;;;;;;;10.77;9.68;;;5.00;97.20;;;;;;1735490;28;20254;-76
2022/01/22 06:43:09;;;;;;;10.17;9.23;;;5.00;97.20;;;;;;1735380;28;20250;-76
2022/01/22 06:44:00;;;;;;;11.63;10.18;;;5.00;97.20;;;;;;1735541;28;20232;-76
2022/01/22 06:44:52;;;;;;;10.83;9.73;;;5.00;97.20;;;;;;1735330;28;20200;-76
2022/01/22 06:45:43;;;;;;;11.02;9.30;;;4.90;97.20;;;;;;1735390;28;20375;-75
2022/01/22 06:46:36;;;;;;;11.47;9.63;;;5.00;97.20;;;;;;1735409;28;20231;-76
2022/01/22 06:47:28;;;;;;;11.38;10.27;;;4.90;97.20;;;;;;1735377;28;20239;-76
2022/01/22 06:48:20;;;;;;;11.18;10.07;;;5.00;97.20;;;;;;1735114;28;20199;-76
2022/01/22 06:49:11;;;;;;;10.70;9.60;;;5.00;97.20;;;;;;1733732;28;20243;-76
2022/01/22 06:50:03;;;;;;;10.00;9.00;;;5.00;97.20;;;;;;1735450;28;20203;-76
2022/01/22 06:50:54;;;;;;;10.82;9.73;;;5.00;97.20;;;;;;1735268;28;20234;-76
2022/01/22 06:51:46;;;;;;;10.73;9.10;;;5.00;97.20;;;;;;1735343;28;20210;-76
2022/01/22 06:52:37;;;;;;;11.05;9.95;;;5.00;97.20;;;;;;1735384;28;20571;-76
2022/01/22 06:53:29;;;;;;;11.07;9.57;;;5.00;97.20;;;;;;1735668;28;20309;-75
2022/01/22 06:54:21;;;;;;;10.80;9.23;;;5.00;97.20;;;;;;1735293;28;20237;-75
2022/01/22 06:55:16;;;;;;;9.23;8.43;;;5.00;97.20;;;;;;1735424;28;20206;-75
2022/01/22 06:56:09;;;;;;;10.95;9.95;;;5.00;97.20;;;;;;1735370;28;20207;-75
2022/01/22 06:57:00;;;;;;;10.75;9.65;;;5.00;97.20;;;;;;1735373;28;20290;-74
2022/01/22 06:57:51;;;;;;;12.32;9.75;;;5.00;97.20;;;;;;1735130;28;20236;-75
2022/01/22 06:58:43;;;;;;;11.20;10.10;;;5.00;97.20;;;;;;1735202;28;20204;-75
2022/01/22 06:59:34;;;;;;;10.23;8.88;;;5.00;97.20;;;;;;1729293;28;20208;-74
2022/01/22 07:00:25;;;;;;;9.60;8.70;;;5.00;97.20;;;;;;1728343;28;20209;-75
2022/01/22 07:01:16;;;;;;;11.00;9.90;;;5.00;97.20;;;;;;1728511;28;20443;-75
2022/01/22 07:02:10;;;;;;;10.90;9.90;;;5.00;97.20;;;;;;1728454;28;20287;-75
2022/01/22 07:03:01;;;;;;;11.57;10.38;;;5.00;97.20;;;;;;1728469;28;20668;-75
2022/01/22 07:03:53;;;;;;;12.00;10.53;;;5.00;97.20;;;;;;1728547;28;20591;-74
2022/01/22 07:04:44;;;;;;;11.95;10.20;;;5.00;97.20;;;;;;1728409;28;20443;-75
2022/01/22 07:05:36;;;;;;;13.83;10.97;;;5.00;97.20;;;;;;1728364;28;20228;-75
2022/01/22 07:06:27;;;;;;;13.85;11.35;;;5.00;97.20;;;;;;1728396;28;20239;-75
2022/01/22 07:07:18;;;;;;;12.87;10.63;;;5.00;97.20;;;;;;1728415;28;20197;-75
2022/01/22 07:08:09;;;;;;;10.82;9.73;;;5.00;97.20;;;;;;1728090;28;20447;-75
2022/01/22 07:09:01;;;;;;;12.93;9.80;;;5.00;97.20;;;;;;1729160;28;20207;-75
2022/01/22 07:09:51;;;;;;;12.30;10.88;;;5.00;97.20;;;;;;1735223;28;20244;-75
2022/01/22 07:10:43;;;;;;;15.63;10.20;;;5.00;97.20;;;;;;1735230;28;20230;-75
2022/01/22 07:11:34;;;;;;;10.68;9.57;;;5.00;97.20;;;;;;1728707;28;20228;-75
2022/01/22 07:12:26;;;;;;;11.40;10.10;;;5.00;97.20;;;;;;1728506;28;20203;-75
2022/01/22 07:13:16;;;;;;;10.98;9.88;;;5.00;97.20;;;;;;1728371;28;20687;-74
2022/01/22 07:14:08;;;;;;;11.70;10.13;;;5.00;97.20;;;;;;1728406;28;20554;-75
2022/01/22 07:14:59;;;;;;;13.73;10.50;;;5.00;97.20;;;;;;1728334;28;20584;-75
2022/01/22 07:15:50;;;;;;;11.87;9.43;;;5.00;97.20;;;;;;1728328;28;20567;-74
2022/01/22 07:16:41;;;;;;;11.57;10.13;;;5.00;97.20;;;;;;1728337;28;20208;-75
2022/01/22 07:17:35;;;;;;;10.47;9.37;;;5.00;97.20;;;;;;1728406;28;20205;-74
2022/01/22 07:18:28;;;;;;;11.52;10.25;;;5.00;97.20;;;;;;1728368;28;20874;-74
2022/01/22 07:19:21;;;;;;;11.13;10.13;;;5.00;97.20;;;;;;1731315;28;20246;-75
2022/01/22 07:20:15;;;;;;;12.23;11.02;;;5.00;97.20;;;;;;1735139;28;20210;-74
2022/01/22 07:21:16;;;;;;;10.73;9.63;;;5.00;97.20;;;;;;1735135;28;20255;-74
2022/01/22 07:22:20;;;;;;;11.48;9.57;;;5.00;97.20;;;;;;1735215;28;20265;-75
2022/01/22 07:23:18;;;;;;;11.82;10.38;;;5.00;97.20;;;;;;1735137;28;20239;-74
2022/01/22 07:24:26;;;;;;;12.38;10.05;;;5.00;97.20;;;;;;1735241;28;20204;-75
2022/01/22 07:25:18;;;;;;;11.55;9.85;;;5.00;97.20;;;;;;1735065;28;20208;-74
2022/01/22 07:26:09;;;;;;;11.50;9.52;;;4.90;97.20;;;;;;1735231;28;20231;-75
2022/01/22 07:27:01;;;;;;;14.03;10.43;;;4.90;97.20;;;;;;1735133;28;20206;-75
2022/01/22 07:27:52;;;;;;;11.50;10.30;;;4.80;97.20;;;;;;1734859;28;20594;-75
2022/01/22 07:28:44;;;;;;;11.80;10.70;;;4.80;97.20;;;;;;1734972;28;20200;-75
2022/01/22 07:29:34;;;;;;;10.70;9.60;;;4.80;97.20;;;;;;1729534;28;20224;-75
2022/01/22 07:30:27;;;;;;;13.53;10.60;;;4.80;97.20;;;;;;1728183;28;20204;-75
2022/01/22 07:31:20;;;;;;;12.82;10.57;;;4.80;97.20;;;;;;1728238;28;20234;-75
2022/01/22 07:32:24;;;;;;;13.82;10.73;;;4.70;97.20;;;;;;1728223;28;20203;-75
2022/01/22 07:33:18;;;;;;;12.00;10.50;;;4.70;97.20;;;;;;1728274;28;20212;-75
2022/01/22 07:34:09;;;;;;;11.13;10.05;;;4.70;97.20;;;;;;1728292;28;20209;-75
2022/01/22 07:35:01;;;;;;;11.70;10.17;;;4.70;97.20;;;;;;1728270;28;20279;-75
2022/01/22 07:35:53;;;;;;;14.80;10.85;;;4.70;97.20;;;;;;1728245;28;20442;-75
2022/01/22 07:36:45;;;;;;;11.55;10.35;;;4.70;97.20;;;;;;1727955;28;20258;-74
2022/01/22 07:37:36;;;;;;;13.20;11.75;;;4.70;97.20;;;;;;1727764;28;20212;-75
2022/01/22 07:38:28;;;;;;;12.65;10.65;;;4.70;97.20;;;;;;1728168;28;20239;-75
2022/01/22 07:39:18;;;;;;;11.88;10.50;;;4.70;97.20;;;;;;1730846;28;20223;-75
2022/01/22 07:40:12;;;;;;;12.90;10.93;;;4.70;97.20;;;;;;1734960;28;20196;-75
2022/01/22 07:41:03;;;;;;;13.30;10.95;;;4.70;97.20;;;;;;1735107;28;20204;-75
2022/01/22 07:41:54;;;;;;;12.90;11.33;;;4.70;97.20;;;;;;1735044;28;20207;-75
2022/01/22 07:42:45;;;;;;;11.45;10.30;;;4.70;97.20;;;;;;1735005;28;20240;-75
2022/01/22 07:43:39;;;;;;;11.70;10.20;;;4.70;97.20;;;;;;1734955;28;20300;-75
2022/01/22 07:44:29;;;;;;;12.57;10.52;;;4.70;97.20;;;;;;1734983;28;20246;-75
2022/01/22 07:45:21;;;;;;;13.50;11.47;;;4.70;97.20;;;;;;1734868;28;20204;-75
2022/01/22 07:46:12;;;;;;;14.55;11.38;;;4.70;97.20;;;;;;1734968;28;20237;-75
2022/01/22 07:47:04;;;;;;;14.97;11.00;;;4.70;97.20;;;;;;1734987;28;20210;-75
2022/01/22 07:47:55;;;;;;;12.38;10.75;;;4.60;97.20;;;;;;1733823;28;20204;-75
2022/01/22 07:48:48;;;;;;;12.60;11.30;;;4.60;97.20;;;;;;1734363;28;20196;-75
2022/01/22 07:49:39;;;;;;;12.93;11.27;;;4.60;97.20;;;;;;1734959;28;20203;-75
2022/01/22 07:50:31;;;;;;;13.80;11.82;;;4.60;97.20;;;;;;1734903;28;20286;-75
2022/01/22 07:51:22;;;;;;;12.60;10.90;;;4.60;97.20;;;;;;1734929;28;20204;-75
2022/01/22 07:52:13;;;;;;;11.90;10.23;;;4.60;97.20;;;;;;1734904;28;20196;-75
2022/01/22 07:53:04;;;;;;;12.55;11.23;;;4.50;97.20;;;;;;1734986;28;20718;-75
2022/01/22 07:53:56;;;;;;;14.70;11.47;;;4.50;97.20;;;;;;1734908;28;20667;-75
2022/01/22 07:54:47;;;;;;;12.70;11.40;;;4.60;97.20;;;;;;1734930;28;20457;-75
2022/01/22 07:55:39;;;;;;;12.10;10.73;;;4.60;97.20;;;;;;1734929;28;20206;-75
2022/01/22 07:56:30;;;;;;;13.20;11.80;;;4.60;97.20;;;;;;1735005;28;20446;-75
2022/01/22 07:57:21;;;;;;;13.93;10.87;;;4.60;97.20;;;;;;1734943;28;20659;-75
2022/01/22 07:58:14;;;;;;;14.18;11.55;;;4.50;97.20;;;;;;1733837;28;20204;-75
2022/01/22 07:59:06;;;;;;;12.32;10.98;;;4.60;97.20;;;;;;1734859;28;20605;-75
2022/01/22 07:59:57;;;;;;;13.30;11.55;;;4.60;97.20;;;;;;1734922;28;20239;-75
2022/01/22 08:00:48;;;;;;;12.73;10.75;;;4.60;97.20;;;;;;1734709;28;20754;-75
2022/01/22 08:01:40;;;;;;;13.03;11.43;;;4.60;97.20;;;;;;1735001;28;20551;-75
2022/01/22 08:02:30;;;;;;;12.57;11.27;;;4.60;97.20;;;;;;1734949;28;20207;-75
2022/01/22 08:03:23;;;;;;;13.37;11.50;;;4.60;97.20;;;;;;1734885;28;20208;-74
2022/01/22 08:04:23;;;;;;;13.13;11.52;;;4.60;97.20;;;;;;1734899;28;20619;-75
2022/01/22 08:05:14;;;;;;;11.88;10.68;;;4.60;97.20;;;;;;1735002;28;20203;-75
2022/01/22 08:06:05;;;;;;;14.70;11.55;;;4.60;97.20;;;;;;1734725;28;20319;-75
2022/01/22 08:06:59;;;;;;;12.97;10.93;;;4.60;97.20;;;;;;1734914;28;20211;-75
2022/01/22 08:07:50;;;;;;;12.30;10.93;;;4.60;97.20;;;;;;1734696;28;20207;-75
2022/01/22 08:08:41;;;;;;;13.48;11.38;;;4.60;97.20;;;;;;1734475;28;20196;-75
2022/01/22 08:09:34;;;;;;;14.57;11.30;;;4.60;97.20;;;;;;1734906;28;20222;-75
2022/01/22 08:10:24;;;;;;;13.93;12.02;;;4.60;97.20;;;;;;1734734;28;20211;-75
2022/01/22 08:11:16;;;;;;;16.73;13.00;;;4.60;97.20;;;;;;1734868;28;20218;-75
2022/01/22 08:12:08;;;;;;;14.50;11.25;;;4.60;97.20;;;;;;1734916;28;20938;-77
2022/01/22 08:12:59;;;;;;;13.63;12.02;;;4.60;97.20;;;;;;1734945;28;20195;-77
2022/01/22 08:13:50;;;;;;;14.88;11.65;;;4.60;97.20;;;;;;1734906;28;20199;-77
2022/01/22 08:14:42;;;;;;;12.40;11.10;;;4.60;97.20;;;;;;1734834;28;20204;-77
2022/01/22 08:15:33;;;;;;;14.98;12.02;;;4.60;97.20;;;;;;1734997;28;20243;-77
2022/01/22 08:16:25;;;;;;;13.50;12.10;;;4.60;97.20;;;;;;1735004;28;20482;-77
2022/01/22 08:17:16;;;;;;;13.63;11.65;;;4.60;97.20;;;;;;1734810;28;20211;-75
2022/01/22 08:18:08;;;;;;;14.70;12.18;;;4.50;97.20;;;;;;1732740;28;20204;-75
2022/01/22 08:18:58;;;;;;;16.70;12.90;;;4.50;97.20;;;;;;1727869;28;20211;-75
2022/01/22 08:19:53;;;;;;;13.77;12.10;;;4.50;97.20;;;;;;1728091;28;20685;-75
2022/01/22 08:20:44;;;;;;;15.27;11.52;;;4.50;97.20;;;;;;1727854;28;20233;-75
2022/01/22 08:21:35;;;;;;;14.60;12.57;;;4.50;97.20;;;;;;1727919;28;20196;-75
2022/01/22 08:22:26;;;;;;;17.02;11.73;;;4.50;97.20;;;;;;1727996;28;20240;-75
2022/01/22 08:23:20;;;;;;;13.77;12.47;;;4.60;97.20;;;;;;1727905;28;20201;-74
2022/01/22 08:24:12;;;;;;;14.23;12.45;;;4.60;97.20;;;;;;1728049;28;20447;-75
2022/01/22 08:25:04;;;;;;;13.32;11.95;;;4.50;97.20;;;;;;1727810;28;20204;-75
2022/01/22 08:25:55;;;;;;;13.70;12.20;;;4.60;97.20;;;;;;1727845;28;20263;-75
2022/01/22 08:26:50;;;;;;;13.90;11.93;;;4.50;97.20;;;;;;1728061;28;20216;-75
2022/01/22 08:28:52;;;;;;;13.93;12.50;;;4.50;97.20;;;;;;1727615;28;20320;-75
2022/01/22 08:28:57;;;;;;;14.40;12.55;;;4.60;97.20;;;;;;1727903;28;20207;-74
2022/01/22 08:29:48;;;;;;;12.88;11.63;;;4.60;97.20;;;;;;1727917;28;20247;-75
2022/01/22 08:30:45;;;;;;;13.90;11.83;;;4.60;97.20;;;;;;1727808;28;20212;-75
2022/01/22 08:31:48;;;;;;;13.90;11.48;;;4.60;97.20;;;;;;1727942;28;20694;-75
2022/01/22 08:36:06;;;;;;;14.20;12.63;;;4.60;97.20;;;;;;1727985;28;20203;-75
2022/01/22 08:36:56;;;;;;;15.48;12.95;;;4.60;97.20;;;;;;1727867;28;20215;-75
2022/01/22 08:37:48;;;;;;;14.80;13.20;;;4.60;97.20;;;;;;1727645;28;20239;-75
2022/01/22 08:38:39;;;;;;;15.73;13.55;;;4.60;97.20;;;;;;1727976;28;20228;-75
2022/01/22 08:39:31;;;;;;;17.33;13.57;;;4.60;97.20;;;;;;1727839;28;20211;-75
2022/01/22 08:40:21;;;;;;;17.17;12.65;;;4.60;97.20;;;;;;1727793;28;20886;-75
2022/01/22 08:41:13;;;;;;;14.90;13.33;;;4.60;97.20;;;;;;1727974;28;20648;-75
2022/01/22 08:42:06;;;;;;;16.60;12.13;;;4.60;97.20;;;;;;1727817;28;20232;-75
2022/01/22 08:42:57;;;;;;;17.50;13.10;;;4.60;97.20;;;;;;1727916;28;20277;-75
2022/01/22 08:43:48;;;;;;;20.70;13.70;;;4.60;97.20;;;;;;1727842;28;20204;-75
2022/01/22 08:44:40;;;;;;;19.15;12.88;;;4.70;97.20;;;;;;1727703;28;20200;-75
2022/01/22 08:45:32;;;;;;;13.70;12.30;;;4.70;97.20;;;;;;1727921;28;20202;-76
2022/01/22 08:46:22;;;;;;;15.98;13.05;;;4.70;97.20;;;;;;1727776;28;20228;-75
2022/01/22 08:47:15;;;;;;;13.53;12.07;;;4.70;97.20;;;;;;1727957;28;20208;-75
2022/01/22 08:48:06;;;;;;;14.65;12.52;;;4.70;97.20;;;;;;1727876;28;20667;-75
2022/01/22 08:48:58;;;;;;;13.57;11.60;;;4.70;97.20;;;;;;1733706;28;20651;-77
2022/01/22 08:49:49;;;;;;;17.77;13.93;;;4.70;97.20;;;;;;1734617;28;20238;-77
2022/01/22 08:50:42;;;;;;;14.47;12.83;;;4.70;97.20;;;;;;1734765;28;20216;-75
2022/01/22 08:51:33;;;;;;;14.50;12.50;;;4.70;97.20;;;;;;1734599;28;20204;-76
2022/01/22 08:52:30;;;;;;;15.50;12.25;;;4.70;97.20;;;;;;1734556;28;20682;-76
2022/01/22 08:53:20;;;;;;;14.27;11.38;;;4.70;97.20;;;;;;1734591;28;20709;-76
2022/01/22 08:54:12;;;;;;;17.47;12.97;;;4.70;97.20;;;;;;1734678;28;20195;-77
2022/01/22 08:55:03;;;;;;;13.93;12.50;;;4.70;97.20;;;;;;1734752;28;20203;-76
2022/01/22 08:55:56;;;;;;;13.98;12.25;;;4.70;97.20;;;;;;1734735;28;20211;-77
2022/01/22 08:56:47;;;;;;;14.00;12.27;;;4.70;97.20;;;;;;1734694;28;20204;-77
2022/01/22 08:57:39;;;;;;;14.33;12.83;;;4.70;97.20;;;;;;1734510;28;20200;-76
2022/01/22 08:58:29;;;;;;;14.25;12.60;;;4.70;97.20;;;;;;1730574;28;20192;-77
2022/01/22 08:59:21;;;;;;;14.07;12.50;;;4.70;97.20;;;;;;1727535;28;20206;-77
2022/01/22 09:00:13;;;;;;;14.88;12.23;;;4.70;97.20;;;;;;1727710;28;20667;-77
2022/01/22 09:01:05;;;;;;;14.98;12.52;;;4.70;97.20;;;;;;1727774;28;20208;-77
2022/01/22 09:01:56;;;;;;;14.07;12.10;;;4.70;97.20;;;;;;1727937;28;20228;-77
2022/01/22 09:02:48;;;;;;;17.37;12.73;;;4.70;97.20;;;;;;1728163;28;20203;-77
2022/01/22 09:03:39;;;;;;;13.40;11.98;;;4.70;97.20;;;;;;1727893;28;20451;-77
2022/01/22 09:04:31;;;;;;;14.27;12.77;;;4.70;97.20;;;;;;1727887;28;20232;-76
2022/01/22 09:05:30;;;;;;;14.32;12.82;;;4.70;97.20;;;;;;1727783;28;20211;-76
2022/01/22 09:06:23;;;;;;;14.20;12.70;;;4.70;97.20;;;;;;1727640;28;20597;-76
2022/01/22 09:07:14;;;;;;;16.52;12.82;;;4.80;97.20;;;;;;1727762;28;20577;-75
2022/01/22 09:08:06;;;;;;;15.05;12.73;;;4.80;97.20;;;;;;1727233;28;20248;-75
2022/01/22 09:09:07;;;;;;;13.88;12.25;;;4.80;97.20;;;;;;1734056;28;20191;-75
2022/01/22 09:09:59;;;;;;;14.85;12.02;;;4.80;97.20;;;;;;1734441;28;20552;-75
2022/01/22 09:10:50;;;;;;;16.48;12.75;;;4.80;97.20;;;;;;1734431;28;20477;-75
2022/01/22 09:11:44;;;;;;;16.50;13.27;;;4.80;97.20;;;;;;1734468;28;20203;-75
2022/01/22 09:12:35;;;;;;;14.27;12.15;;;4.80;97.20;;;;;;1734552;28;20207;-77
2022/01/22 09:13:28;;;;;;;15.53;13.17;;;4.80;97.20;;;;;;1734439;28;20202;-74
2022/01/22 09:14:19;;;;;;;14.57;13.10;;;4.80;97.20;;;;;;1734421;28;20235;-76
2022/01/22 09:15:11;;;;;;;15.65;13.52;;;4.80;97.20;;;;;;1734453;28;20200;-75
2022/01/22 09:16:03;;;;;;;15.90;12.18;;;4.80;97.20;;;;;;1734361;28;20231;-75
2022/01/22 09:16:56;;;;;;;14.73;13.23;;;4.80;97.20;;;;;;1734437;28;20695;-75
2022/01/22 09:17:48;;;;;;;13.75;12.45;;;4.80;97.20;;;;;;1734231;28;20608;-76
2022/01/22 09:18:40;;;;;;;14.18;12.68;;;4.90;97.20;;;;;;1729631;28;20197;-76
2022/01/22 09:19:34;;;;;;;15.95;13.75;;;4.90;97.20;;;;;;1727628;28;20212;-75
2022/01/22 09:20:44;;;;;;;15.18;12.07;;;5.00;97.20;;;;;;1727552;28;20247;-76
2022/01/22 09:21:39;;;;;;;13.38;12.07;;;4.90;97.20;;;;;;1727730;28;20201;-76
2022/01/22 09:22:30;;;;;;;14.20;12.70;;;5.00;97.20;;;;;;1727593;28;20258;-76
2022/01/22 09:23:21;;;;;;;16.98;12.60;;;5.00;97.20;;;;;;1727625;28;20228;-76
2022/01/22 09:24:15;;;;;;;15.07;13.30;;;5.00;97.20;;;;;;1727693;28;20197;-76
2022/01/22 09:25:07;;;;;;;15.32;13.15;;;5.00;97.20;;;;;;1727692;28;20682;-76
2022/01/22 09:25:59;;;;;;;14.63;13.15;;;5.00;97.20;;;;;;1727618;28;20676;-76
2022/01/22 09:26:50;;;;;;;14.35;12.93;;;5.00;97.20;;;;;;1727324;28;20213;-76
2022/01/22 09:27:42;;;;;;;14.90;12.55;;;5.00;97.20;;;;;;1727352;28;20200;-76
2022/01/22 09:28:35;;;;;;;14.38;12.75;;;5.00;97.20;;;;;;1730633;28;20223;-76
2022/01/22 09:29:27;;;;;;;14.77;12.30;;;5.00;97.20;;;;;;1734334;28;20283;-75
2022/01/22 09:30:19;;;;;;;15.73;14.00;;;4.90;97.20;;;;;;1734350;28;20203;-76
2022/01/22 09:31:11;;;;;;;16.75;14.90;;;4.90;97.20;;;;;;1734314;28;20196;-76
2022/01/22 09:32:03;;;;;;;17.52;15.73;;;4.90;97.20;;;;;;1733189;28;20215;-78
2022/01/22 09:32:55;;;;;;;17.52;15.63;;;4.90;97.20;;;;;;1732720;28;20721;-79
2022/01/22 09:33:46;;;;;;;16.95;15.15;;;4.80;97.20;;;;;;1732413;28;20226;-79
2022/01/22 09:34:37;;;;;;;16.33;14.70;;;4.80;97.20;;;;;;1732712;28;20196;-78
2022/01/22 09:35:28;;;;;;;17.50;15.68;;;4.80;97.20;;;;;;1732164;28;20234;-78
2022/01/22 09:36:20;;;;;;;14.63;13.10;;;4.80;97.20;;;;;;1727429;28;20204;-76
2022/01/22 09:37:13;;;;;;;16.00;14.40;;;4.80;97.20;;;;;;1727334;28;20452;-75
2022/01/22 09:38:04;;;;;;;14.23;12.82;;;4.80;97.20;;;;;;1727084;28;20204;-76
2022/01/22 09:38:57;;;;;;;16.08;14.48;;;4.80;97.20;;;;;;1727424;28;20197;-76
2022/01/22 09:39:48;;;;;;;16.67;14.88;;;4.80;97.20;;;;;;1727404;28;20207;-76
2022/01/22 09:40:40;;;;;;;15.63;14.07;;;4.80;97.20;;;;;;1733183;28;20212;-75
2022/01/22 09:41:31;;;;;;;15.02;13.48;;;4.90;97.20;;;;;;1734196;28;20208;-76
2022/01/22 09:42:26;;;;;;;16.50;13.30;;;4.90;97.20;;;;;;1734405;28;20208;-76
2022/01/22 09:43:16;;;;;;;14.82;13.05;;;4.90;97.20;;;;;;1734130;28;20690;-76
2022/01/22 09:44:08;;;;;;;16.30;14.07;;;4.90;97.20;;;;;;1734209;28;20682;-76
2022/01/22 09:45:00;;;;;;;16.08;12.90;;;4.90;97.20;;;;;;1734123;28;20199;-76
2022/01/22 09:45:53;;;;;;;15.75;13.50;;;4.90;97.20;;;;;;1734032;28;20394;-76
2022/01/22 09:46:45;;;;;;;16.23;13.70;;;4.90;97.20;;;;;;1732381;28;20315;-76
2022/01/22 09:47:37;;;;;;;14.80;13.23;;;4.90;97.20;;;;;;1733953;28;20231;-76
2022/01/22 09:48:29;;;;;;;16.25;14.50;;;4.90;97.20;;;;;;1734125;28;20204;-76
2022/01/22 09:49:20;;;;;;;15.30;13.80;;;4.90;97.20;;;;;;1734017;28;20207;-76
2022/01/22 09:50:12;;;;;;;15.83;13.80;;;4.90;97.20;;;;;;1734151;28;20188;-76
2022/01/22 09:51:03;;;;;;;16.52;14.35;;;4.90;97.20;;;;;;1734178;28;20811;-76
2022/01/22 09:51:54;;;;;;;15.57;13.53;;;4.90;97.20;;;;;;1734208;28;20600;-76
2022/01/22 09:52:48;;;;;;;16.45;13.77;;;4.90;97.20;;;;;;1734102;28;20211;-75
2022/01/22 09:53:41;;;;;;;15.02;12.75;;;5.00;97.20;;;;;;1734166;28;20208;-76
2022/01/22 09:54:32;;;;;;;15.90;14.30;;;5.00;97.20;;;;;;1734178;28;20231;-76
2022/01/22 09:55:24;;;;;;;14.97;13.43;;;5.00;97.20;;;;;;1734074;28;20200;-76
2022/01/22 09:56:20;;;;;;;15.90;13.63;;;5.00;97.20;;;;;;1734059;28;20208;-76
2022/01/22 09:57:12;;;;;;;17.65;14.43;;;4.90;97.20;;;;;;1733691;28;20763;-76
2022/01/22 09:58:05;;;;;;;18.75;14.25;;;4.90;97.20;;;;;;1733812;28;20207;-76
2022/01/22 09:58:55;;;;;;;15.10;13.60;;;5.00;97.20;;;;;;1734106;28;20234;-75
2022/01/22 09:59:47;;;;;;;16.10;14.03;;;5.00;97.20;;;;;;1734132;28;20211;-76
2022/01/22 10:00:38;;;;;;;16.08;13.35;;;5.00;97.20;;;;;;1733834;28;20247;-76
2022/01/22 10:01:33;;;;;;;16.30;13.57;;;5.00;97.20;;;;;;1734036;28;20200;-76
2022/01/22 10:02:28;;;;;;;15.75;13.00;;;5.00;97.20;;;;;;1734109;28;20954;-75
2022/01/22 10:03:21;;;;;;;16.02;13.43;;;5.00;97.20;;;;;;1734322;28;20188;-75
2022/01/22 10:04:12;;;;;;;14.45;12.95;;;5.00;97.20;;;;;;1734172;28;20277;-76
2022/01/22 10:05:04;;;;;;;14.90;13.37;;;5.00;97.20;;;;;;1734058;28;20200;-76
2022/01/22 10:05:56;;;;;;;15.60;12.68;;;5.00;97.20;;;;;;1734058;28;20984;-76
2022/01/22 10:06:49;;;;;;;17.38;13.05;;;5.00;97.20;;;;;;1730698;28;20220;-76
2022/01/22 10:07:43;;;;;;;13.95;12.48;;;5.00;97.20;;;;;;1726987;28;20208;-76
2022/01/22 10:08:38;;;;;;;15.73;14.05;;;5.00;97.20;;;;;;1728503;28;20307;-76
2022/01/22 10:09:35;;;;;;;14.93;13.30;;;5.00;97.20;;;;;;1734131;28;20215;-76
2022/01/22 10:10:39;;;;;;;16.02;13.35;;;5.10;97.20;;;;;;1734181;28;20234;-76
2022/01/22 10:11:32;;;;;;;15.75;13.57;;;5.00;97.20;;;;;;1734407;28;20238;-76
2022/01/22 10:12:25;;;;;;;18.08;14.13;;;5.00;97.20;;;;;;1734158;28;20740;-76
2022/01/22 10:13:37;;;;;;;15.80;13.70;;;5.10;97.20;;;;;;1734268;28;20208;-75
2022/01/22 10:14:29;;;;;;;16.48;13.32;;;5.10;97.20;;;;;;1734456;28;20631;-76
2022/01/22 10:15:21;;;;;;;18.42;13.95;;;5.10;97.20;;;;;;1734244;28;20242;-76
2022/01/22 10:16:15;;;;;;;15.68;13.30;;;5.10;97.20;;;;;;1734331;28;20211;-76
2022/01/22 10:17:06;;;;;;;14.20;12.73;;;5.10;97.20;;;;;;1728529;28;20203;-76
2022/01/22 10:17:58;;;;;;;16.70;14.90;;;5.10;97.20;;;;;;1727210;28;20204;-76
2022/01/22 10:19:24;;;;;;;19.33;15.02;;;5.10;97.20;;;;;;1727382;28;20205;-76
2022/01/22 10:20:33;;;;;;;17.85;14.93;;;5.20;97.20;;;;;;1722753;28;20315;-76
2022/01/22 10:21:27;;;;;;;21.80;15.98;;;5.20;97.20;;;;;;1727422;28;20263;-76
2022/01/22 10:22:20;;;;;;;21.30;16.27;;;5.20;97.20;;;;;;1727271;28;20260;-76
2022/01/22 10:23:22;;;;;;;20.63;15.68;;;5.20;97.20;;;;;;1727582;28;20204;-76
2022/01/22 10:24:32;;;;;;;17.60;13.90;;;5.20;97.20;;;;;;1727391;28;20613;-76
2022/01/22 10:25:29;;;;;;;20.98;15.80;;;5.20;97.20;;;;;;1727483;28;20200;-76
2022/01/22 10:26:22;;;;;;;17.23;14.43;;;5.30;97.20;;;;;;1727323;28;20211;-76
2022/01/22 10:27:26;;;;;;;22.38;14.52;;;5.30;97.20;;;;;;1733048;28;20202;-76
2022/01/22 10:28:21;;;;;;;16.05;13.52;;;5.40;97.20;;;;;;1733876;28;20271;-76
2022/01/22 10:29:12;;;;;;;16.40;13.27;;;5.40;97.20;;;;;;1734291;28;20184;-76
2022/01/22 10:30:08;;;;;;;15.80;13.43;;;5.50;97.20;;;;;;1733832;28;20278;-76
2022/01/22 10:31:07;;;;;;;18.13;13.20;;;5.50;97.20;;;;;;1727282;28;20375;-75
2022/01/22 10:32:02;;;;;;;16.30;12.95;;;5.50;97.20;;;;;;1727406;28;20207;-76
2022/01/22 10:33:00;;;;;;;15.85;12.32;;;5.60;97.20;;;;;;1727376;28;20635;-76
2022/01/22 10:34:09;;;;;;;14.07;12.75;;;5.60;97.20;;;;;;1727977;28;20239;-77
2022/01/22 10:35:08;;;;;;;13.82;12.52;;;5.60;97.20;;;;;;1727374;28;20580;-76
2022/01/22 10:36:12;;;;;;;13.55;12.15;;;5.60;97.20;;;;;;1727241;28;20208;-76
2022/01/22 10:37:04;;;;;;;15.35;12.75;;;5.60;97.20;;;;;;1727919;28;20193;-76
2022/01/22 10:37:56;;;;;;;14.60;13.20;;;5.60;97.20;;;;;;1726928;28;20208;-77
2022/01/22 10:38:52;;;;;;;16.83;13.32;;;5.60;97.20;;;;;;1727215;28;20212;-78
2022/01/22 10:39:45;;;;;;;13.65;12.27;;;5.60;97.20;;;;;;1727375;28;20208;-76